sensor_id;sensor_type;location;lat;lon;timestamp;P1;durP1;ratioP1;P2;durP2;ratioP2
6292;SDS011;3179;54.350;10.102;2023-05-07T00:00:20;8.33;;;6.20;;
6292;SDS011;3179;54.350;10.102;2023-05-07T00:02:47;11.67;;;6.70;;
6292;SDS011;3179;54.350;10.102;2023-05-07T00:05:14;9.63;;;6.53;;
6292;SDS011;3179;54.350;10.102;2023-05-07T00:07:42;11.70;;;7.07;;
6292;SDS011;3179;54.350;10.102;2023-05-07T00:10:09;13.47;;;7.20;;
6292;SDS011;3179;54.350;10.102;2023-05-07T00:12:37;14.37;;;6.80;;
6292;SDS011;3179;54.350;10.102;2023-05-07T00:15:04;12.03;;;6.93;;
6292;SDS011;3179;54.350;10.102;2023-05-07T00:17:32;11.67;;;6.23;;
6292;SDS011;3179;54.350;10.102;2023-05-07T00:19:59;16.37;;;7.20;;
6292;SDS011;3179;54.350;10.102;2023-05-07T00:22:26;11.03;;;6.40;;
6292;SDS011;3179;54.350;10.102;2023-05-07T00:24:56;14.10;;;7.00;;
6292;SDS011;3179;54.350;10.102;2023-05-07T00:27:23;13.90;;;7.67;;
6292;SDS011;3179;54.350;10.102;2023-05-07T00:29:50;10.80;;;6.60;;
6292;SDS011;3179;54.350;10.102;2023-05-07T00:32:17;10.93;;;6.27;;
6292;SDS011;3179;54.350;10.102;2023-05-07T00:34:44;15.20;;;7.27;;
6292;SDS011;3179;54.350;10.102;2023-05-07T00:37:11;10.23;;;7.00;;
6292;SDS011;3179;54.350;10.102;2023-05-07T00:39:38;16.70;;;6.70;;
6292;SDS011;3179;54.350;10.102;2023-05-07T00:42:06;11.20;;;7.10;;
6292;SDS011;3179;54.350;10.102;2023-05-07T00:44:33;9.27;;;6.20;;
6292;SDS011;3179;54.350;10.102;2023-05-07T00:47:00;9.03;;;6.30;;
6292;SDS011;3179;54.350;10.102;2023-05-07T00:49:31;14.33;;;6.70;;
6292;SDS011;3179;54.350;10.102;2023-05-07T00:52:03;9.10;;;6.20;;
6292;SDS011;3179;54.350;10.102;2023-05-07T00:54:31;13.20;;;7.00;;
6292;SDS011;3179;54.350;10.102;2023-05-07T00:56:59;10.53;;;6.90;;
6292;SDS011;3179;54.350;10.102;2023-05-07T00:59:27;8.90;;;6.70;;
6292;SDS011;3179;54.350;10.102;2023-05-07T01:01:54;9.07;;;6.63;;
6292;SDS011;3179;54.350;10.102;2023-05-07T01:04:21;9.67;;;6.27;;
6292;SDS011;3179;54.350;10.102;2023-05-07T01:06:48;10.53;;;6.53;;
6292;SDS011;3179;54.350;10.102;2023-05-07T01:09:16;12.10;;;7.47;;
6292;SDS011;3179;54.350;10.102;2023-05-07T01:11:43;10.00;;;7.37;;
6292;SDS011;3179;54.350;10.102;2023-05-07T01:14:10;8.90;;;6.50;;
6292;SDS011;3179;54.350;10.102;2023-05-07T01:16:38;8.20;;;6.33;;
6292;SDS011;3179;54.350;10.102;2023-05-07T01:19:06;9.20;;;6.60;;
6292;SDS011;3179;54.350;10.102;2023-05-07T01:21:35;8.57;;;6.60;;
6292;SDS011;3179;54.350;10.102;2023-05-07T01:24:06;8.07;;;6.50;;
6292;SDS011;3179;54.350;10.102;2023-05-07T01:26:33;11.67;;;7.00;;
6292;SDS011;3179;54.350;10.102;2023-05-07T01:29:00;8.90;;;6.80;;
6292;SDS011;3179;54.350;10.102;2023-05-07T01:31:26;9.70;;;7.70;;
6292;SDS011;3179;54.350;10.102;2023-05-07T01:33:53;10.00;;;7.60;;
6292;SDS011;3179;54.350;10.102;2023-05-07T01:36:23;10.37;;;7.60;;
6292;SDS011;3179;54.350;10.102;2023-05-07T01:38:52;11.67;;;7.50;;
6292;SDS011;3179;54.350;10.102;2023-05-07T01:41:21;8.03;;;6.47;;
6292;SDS011;3179;54.350;10.102;2023-05-07T01:43:48;8.57;;;7.07;;
6292;SDS011;3179;54.350;10.102;2023-05-07T01:46:16;9.53;;;6.70;;
6292;SDS011;3179;54.350;10.102;2023-05-07T01:48:44;16.60;;;7.90;;
6292;SDS011;3179;54.350;10.102;2023-05-07T01:51:11;9.47;;;7.10;;
6292;SDS011;3179;54.350;10.102;2023-05-07T01:53:38;8.87;;;6.87;;
6292;SDS011;3179;54.350;10.102;2023-05-07T01:56:06;12.23;;;8.10;;
6292;SDS011;3179;54.350;10.102;2023-05-07T01:58:34;10.47;;;7.07;;
6292;SDS011;3179;54.350;10.102;2023-05-07T02:01:01;12.13;;;7.60;;
6292;SDS011;3179;54.350;10.102;2023-05-07T02:03:28;10.70;;;7.27;;
6292;SDS011;3179;54.350;10.102;2023-05-07T02:05:55;13.00;;;8.17;;
6292;SDS011;3179;54.350;10.102;2023-05-07T02:08:22;8.73;;;7.20;;
6292;SDS011;3179;54.350;10.102;2023-05-07T02:10:49;9.50;;;7.77;;
6292;SDS011;3179;54.350;10.102;2023-05-07T02:13:16;10.83;;;7.10;;
6292;SDS011;3179;54.350;10.102;2023-05-07T02:15:44;10.53;;;7.13;;
6292;SDS011;3179;54.350;10.102;2023-05-07T02:18:15;12.73;;;7.63;;
6292;SDS011;3179;54.350;10.102;2023-05-07T02:20:42;7.20;;;6.50;;
6292;SDS011;3179;54.350;10.102;2023-05-07T02:23:09;7.77;;;6.03;;
6292;SDS011;3179;54.350;10.102;2023-05-07T02:25:36;8.87;;;6.90;;
6292;SDS011;3179;54.350;10.102;2023-05-07T02:28:03;7.90;;;6.50;;
6292;SDS011;3179;54.350;10.102;2023-05-07T02:30:29;11.77;;;6.60;;
6292;SDS011;3179;54.350;10.102;2023-05-07T02:32:58;9.10;;;6.60;;
6292;SDS011;3179;54.350;10.102;2023-05-07T02:35:25;7.50;;;6.37;;
6292;SDS011;3179;54.350;10.102;2023-05-07T02:37:52;11.00;;;6.90;;
6292;SDS011;3179;54.350;10.102;2023-05-07T02:40:19;8.30;;;6.50;;
6292;SDS011;3179;54.350;10.102;2023-05-07T02:42:46;9.03;;;6.47;;
6292;SDS011;3179;54.350;10.102;2023-05-07T02:45:12;7.13;;;6.00;;
6292;SDS011;3179;54.350;10.102;2023-05-07T02:47:40;6.77;;;5.53;;
6292;SDS011;3179;54.350;10.102;2023-05-07T02:50:08;7.73;;;6.57;;
6292;SDS011;3179;54.350;10.102;2023-05-07T02:52:36;10.00;;;7.40;;
6292;SDS011;3179;54.350;10.102;2023-05-07T02:55:03;8.70;;;7.13;;
6292;SDS011;3179;54.350;10.102;2023-05-07T02:57:31;6.67;;;5.97;;
6292;SDS011;3179;54.350;10.102;2023-05-07T02:59:58;7.83;;;6.67;;
6292;SDS011;3179;54.350;10.102;2023-05-07T03:02:25;10.53;;;7.50;;
6292;SDS011;3179;54.350;10.102;2023-05-07T03:04:51;6.60;;;5.90;;
6292;SDS011;3179;54.350;10.102;2023-05-07T03:07:19;8.30;;;7.00;;
6292;SDS011;3179;54.350;10.102;2023-05-07T03:09:46;8.27;;;7.30;;
6292;SDS011;3179;54.350;10.102;2023-05-07T03:12:13;8.30;;;6.53;;
6292;SDS011;3179;54.350;10.102;2023-05-07T03:14:39;8.73;;;7.13;;
6292;SDS011;3179;54.350;10.102;2023-05-07T03:17:06;7.47;;;6.27;;
6292;SDS011;3179;54.350;10.102;2023-05-07T03:19:33;8.37;;;6.53;;
6292;SDS011;3179;54.350;10.102;2023-05-07T03:22:00;7.37;;;6.53;;
6292;SDS011;3179;54.350;10.102;2023-05-07T03:24:28;7.13;;;6.00;;
6292;SDS011;3179;54.350;10.102;2023-05-07T03:26:55;7.90;;;6.73;;
6292;SDS011;3179;54.350;10.102;2023-05-07T03:29:22;7.90;;;6.70;;
6292;SDS011;3179;54.350;10.102;2023-05-07T03:31:49;8.83;;;6.53;;
6292;SDS011;3179;54.350;10.102;2023-05-07T03:34:16;8.90;;;7.10;;
6292;SDS011;3179;54.350;10.102;2023-05-07T03:36:47;10.10;;;8.37;;
6292;SDS011;3179;54.350;10.102;2023-05-07T03:39:13;13.77;;;9.50;;
6292;SDS011;3179;54.350;10.102;2023-05-07T03:41:41;9.53;;;8.00;;
6292;SDS011;3179;54.350;10.102;2023-05-07T03:44:08;8.07;;;7.00;;
6292;SDS011;3179;54.350;10.102;2023-05-07T03:46:35;8.97;;;6.13;;
6292;SDS011;3179;54.350;10.102;2023-05-07T03:49:02;8.00;;;6.50;;
6292;SDS011;3179;54.350;10.102;2023-05-07T03:51:28;8.90;;;6.57;;
6292;SDS011;3179;54.350;10.102;2023-05-07T03:53:56;10.80;;;6.23;;
6292;SDS011;3179;54.350;10.102;2023-05-07T03:56:23;6.20;;;5.27;;
6292;SDS011;3179;54.350;10.102;2023-05-07T03:58:52;6.23;;;5.60;;
6292;SDS011;3179;54.350;10.102;2023-05-07T04:01:19;8.63;;;6.50;;
6292;SDS011;3179;54.350;10.102;2023-05-07T04:03:46;6.53;;;5.43;;
6292;SDS011;3179;54.350;10.102;2023-05-07T04:06:13;6.37;;;5.33;;
6292;SDS011;3179;54.350;10.102;2023-05-07T04:08:41;6.53;;;5.83;;
6292;SDS011;3179;54.350;10.102;2023-05-07T04:11:08;6.07;;;5.50;;
6292;SDS011;3179;54.350;10.102;2023-05-07T04:13:35;6.10;;;5.40;;
6292;SDS011;3179;54.350;10.102;2023-05-07T04:16:03;5.40;;;4.90;;
6292;SDS011;3179;54.350;10.102;2023-05-07T04:18:31;6.40;;;5.70;;
6292;SDS011;3179;54.350;10.102;2023-05-07T04:20:57;6.30;;;5.37;;
6292;SDS011;3179;54.350;10.102;2023-05-07T04:23:24;6.30;;;5.70;;
6292;SDS011;3179;54.350;10.102;2023-05-07T04:25:51;6.73;;;5.77;;
6292;SDS011;3179;54.350;10.102;2023-05-07T04:28:19;6.10;;;5.50;;
6292;SDS011;3179;54.350;10.102;2023-05-07T04:30:46;6.17;;;5.57;;
6292;SDS011;3179;54.350;10.102;2023-05-07T04:33:14;6.83;;;5.30;;
6292;SDS011;3179;54.350;10.102;2023-05-07T04:35:42;5.40;;;4.90;;
6292;SDS011;3179;54.350;10.102;2023-05-07T04:38:09;6.33;;;5.40;;
6292;SDS011;3179;54.350;10.102;2023-05-07T04:40:36;5.63;;;5.13;;
6292;SDS011;3179;54.350;10.102;2023-05-07T04:43:03;7.40;;;6.20;;
6292;SDS011;3179;54.350;10.102;2023-05-07T04:45:30;6.40;;;5.40;;
6292;SDS011;3179;54.350;10.102;2023-05-07T04:47:57;6.27;;;5.67;;
6292;SDS011;3179;54.350;10.102;2023-05-07T04:50:26;6.80;;;5.73;;
6292;SDS011;3179;54.350;10.102;2023-05-07T04:52:52;6.60;;;5.70;;
6292;SDS011;3179;54.350;10.102;2023-05-07T04:55:19;6.20;;;5.23;;
6292;SDS011;3179;54.350;10.102;2023-05-07T04:57:46;6.10;;;5.50;;
6292;SDS011;3179;54.350;10.102;2023-05-07T05:00:13;7.27;;;6.07;;
6292;SDS011;3179;54.350;10.102;2023-05-07T05:02:41;8.47;;;6.07;;
6292;SDS011;3179;54.350;10.102;2023-05-07T05:05:08;6.03;;;5.40;;
6292;SDS011;3179;54.350;10.102;2023-05-07T05:07:36;7.50;;;5.70;;
6292;SDS011;3179;54.350;10.102;2023-05-07T05:10:04;6.30;;;5.47;;
6292;SDS011;3179;54.350;10.102;2023-05-07T05:12:32;6.67;;;5.67;;
6292;SDS011;3179;54.350;10.102;2023-05-07T05:14:58;11.07;;;5.80;;
6292;SDS011;3179;54.350;10.102;2023-05-07T05:17:25;5.20;;;4.80;;
6292;SDS011;3179;54.350;10.102;2023-05-07T05:19:52;5.70;;;4.90;;
6292;SDS011;3179;54.350;10.102;2023-05-07T05:22:19;6.47;;;5.23;;
6292;SDS011;3179;54.350;10.102;2023-05-07T05:24:47;6.03;;;5.40;;
6292;SDS011;3179;54.350;10.102;2023-05-07T05:27:13;6.80;;;5.80;;
6292;SDS011;3179;54.350;10.102;2023-05-07T05:29:40;7.03;;;5.90;;
6292;SDS011;3179;54.350;10.102;2023-05-07T05:32:07;6.30;;;5.03;;
6292;SDS011;3179;54.350;10.102;2023-05-07T05:34:34;6.43;;;5.37;;
6292;SDS011;3179;54.350;10.102;2023-05-07T05:37:01;8.77;;;5.97;;
6292;SDS011;3179;54.350;10.102;2023-05-07T05:39:27;6.73;;;5.67;;
6292;SDS011;3179;54.350;10.102;2023-05-07T05:41:55;6.17;;;4.83;;
6292;SDS011;3179;54.350;10.102;2023-05-07T05:44:22;8.30;;;4.93;;
6292;SDS011;3179;54.350;10.102;2023-05-07T05:46:49;7.10;;;4.63;;
6292;SDS011;3179;54.350;10.102;2023-05-07T05:49:16;7.60;;;5.33;;
6292;SDS011;3179;54.350;10.102;2023-05-07T05:51:42;6.30;;;5.17;;
6292;SDS011;3179;54.350;10.102;2023-05-07T05:54:09;9.10;;;6.10;;
6292;SDS011;3179;54.350;10.102;2023-05-07T05:56:36;6.50;;;5.37;;
6292;SDS011;3179;54.350;10.102;2023-05-07T05:59:04;7.33;;;5.30;;
6292;SDS011;3179;54.350;10.102;2023-05-07T06:01:32;7.23;;;5.50;;
6292;SDS011;3179;54.350;10.102;2023-05-07T06:03:59;9.73;;;5.70;;
6292;SDS011;3179;54.350;10.102;2023-05-07T06:06:25;7.40;;;5.40;;
6292;SDS011;3179;54.350;10.102;2023-05-07T06:08:53;6.07;;;5.00;;
6292;SDS011;3179;54.350;10.102;2023-05-07T06:11:19;5.70;;;5.10;;
6292;SDS011;3179;54.350;10.102;2023-05-07T06:13:46;8.70;;;6.00;;
6292;SDS011;3179;54.350;10.102;2023-05-07T06:16:14;7.47;;;5.50;;
6292;SDS011;3179;54.350;10.102;2023-05-07T06:18:41;6.73;;;5.47;;
6292;SDS011;3179;54.350;10.102;2023-05-07T06:21:09;6.60;;;5.23;;
6292;SDS011;3179;54.350;10.102;2023-05-07T06:23:36;5.53;;;5.00;;
6292;SDS011;3179;54.350;10.102;2023-05-07T06:26:03;6.40;;;5.50;;
6292;SDS011;3179;54.350;10.102;2023-05-07T06:28:29;6.47;;;5.30;;
6292;SDS011;3179;54.350;10.102;2023-05-07T06:31:10;7.03;;;5.20;;
6292;SDS011;3179;54.350;10.102;2023-05-07T06:33:39;11.10;;;4.67;;
6292;SDS011;3179;54.350;10.102;2023-05-07T06:36:06;5.50;;;5.00;;
6292;SDS011;3179;54.350;10.102;2023-05-07T06:38:33;9.93;;;5.20;;
6292;SDS011;3179;54.350;10.102;2023-05-07T06:40:59;7.97;;;5.80;;
6292;SDS011;3179;54.350;10.102;2023-05-07T06:43:26;6.90;;;5.27;;
6292;SDS011;3179;54.350;10.102;2023-05-07T06:45:53;7.17;;;5.97;;
6292;SDS011;3179;54.350;10.102;2023-05-07T06:48:20;9.17;;;6.60;;
6292;SDS011;3179;54.350;10.102;2023-05-07T06:50:48;5.30;;;4.80;;
6292;SDS011;3179;54.350;10.102;2023-05-07T06:53:15;6.47;;;5.67;;
6292;SDS011;3179;54.350;10.102;2023-05-07T06:55:41;5.73;;;4.80;;
6292;SDS011;3179;54.350;10.102;2023-05-07T06:58:08;5.90;;;4.90;;
6292;SDS011;3179;54.350;10.102;2023-05-07T07:00:35;6.77;;;5.40;;
6292;SDS011;3179;54.350;10.102;2023-05-07T07:03:01;5.93;;;5.20;;
6292;SDS011;3179;54.350;10.102;2023-05-07T07:05:28;6.47;;;5.70;;
6292;SDS011;3179;54.350;10.102;2023-05-07T07:07:56;5.60;;;5.10;;
6292;SDS011;3179;54.350;10.102;2023-05-07T07:10:23;8.40;;;4.70;;
6292;SDS011;3179;54.350;10.102;2023-05-07T07:12:50;5.30;;;4.80;;
6292;SDS011;3179;54.350;10.102;2023-05-07T07:15:17;7.00;;;5.50;;
6292;SDS011;3179;54.350;10.102;2023-05-07T07:17:45;7.23;;;5.23;;
6292;SDS011;3179;54.350;10.102;2023-05-07T07:20:12;6.20;;;4.73;;
6292;SDS011;3179;54.350;10.102;2023-05-07T07:22:39;5.33;;;4.80;;
6292;SDS011;3179;54.350;10.102;2023-05-07T07:25:07;5.20;;;4.70;;
6292;SDS011;3179;54.350;10.102;2023-05-07T07:27:36;11.10;;;4.67;;
6292;SDS011;3179;54.350;10.102;2023-05-07T07:30:03;4.47;;;4.07;;
6292;SDS011;3179;54.350;10.102;2023-05-07T07:32:31;5.80;;;4.30;;
6292;SDS011;3179;54.350;10.102;2023-05-07T07:34:58;5.10;;;4.60;;
6292;SDS011;3179;54.350;10.102;2023-05-07T07:37:25;5.23;;;4.47;;
6292;SDS011;3179;54.350;10.102;2023-05-07T07:39:52;6.80;;;4.10;;
6292;SDS011;3179;54.350;10.102;2023-05-07T07:42:20;5.13;;;4.13;;
6292;SDS011;3179;54.350;10.102;2023-05-07T07:44:46;6.47;;;4.60;;
6292;SDS011;3179;54.350;10.102;2023-05-07T07:47:14;4.80;;;4.37;;
6292;SDS011;3179;54.350;10.102;2023-05-07T07:49:40;4.33;;;3.90;;
6292;SDS011;3179;54.350;10.102;2023-05-07T07:52:07;4.23;;;3.83;;
6292;SDS011;3179;54.350;10.102;2023-05-07T07:54:34;5.20;;;3.87;;
6292;SDS011;3179;54.350;10.102;2023-05-07T07:57:01;4.10;;;3.70;;
6292;SDS011;3179;54.350;10.102;2023-05-07T07:59:29;4.57;;;4.13;;
6292;SDS011;3179;54.350;10.102;2023-05-07T08:01:55;4.37;;;3.97;;
6292;SDS011;3179;54.350;10.102;2023-05-07T08:04:22;4.27;;;3.87;;
6292;SDS011;3179;54.350;10.102;2023-05-07T08:06:49;5.13;;;3.47;;
6292;SDS011;3179;54.350;10.102;2023-05-07T08:09:16;7.40;;;4.40;;
6292;SDS011;3179;54.350;10.102;2023-05-07T08:11:42;4.20;;;3.50;;
6292;SDS011;3179;54.350;10.102;2023-05-07T08:14:09;5.23;;;4.30;;
6292;SDS011;3179;54.350;10.102;2023-05-07T08:16:38;6.07;;;4.60;;
6292;SDS011;3179;54.350;10.102;2023-05-07T08:19:05;4.70;;;4.20;;
6292;SDS011;3179;54.350;10.102;2023-05-07T08:21:31;8.57;;;4.40;;
6292;SDS011;3179;54.350;10.102;2023-05-07T08:23:58;4.80;;;4.03;;
6292;SDS011;3179;54.350;10.102;2023-05-07T08:26:25;4.90;;;4.40;;
6292;SDS011;3179;54.350;10.102;2023-05-07T08:28:52;5.30;;;4.70;;
6292;SDS011;3179;54.350;10.102;2023-05-07T08:31:18;4.63;;;4.23;;
6292;SDS011;3179;54.350;10.102;2023-05-07T08:33:46;5.40;;;4.37;;
6292;SDS011;3179;54.350;10.102;2023-05-07T08:36:13;3.73;;;3.43;;
6292;SDS011;3179;54.350;10.102;2023-05-07T08:38:40;4.13;;;3.73;;
6292;SDS011;3179;54.350;10.102;2023-05-07T08:41:09;4.20;;;3.80;;
6292;SDS011;3179;54.350;10.102;2023-05-07T08:43:36;4.73;;;4.10;;
6292;SDS011;3179;54.350;10.102;2023-05-07T08:46:06;4.10;;;3.50;;
6292;SDS011;3179;54.350;10.102;2023-05-07T08:48:35;4.37;;;3.97;;
6292;SDS011;3179;54.350;10.102;2023-05-07T08:51:04;8.67;;;4.30;;
6292;SDS011;3179;54.350;10.102;2023-05-07T08:53:31;5.50;;;4.10;;
6292;SDS011;3179;54.350;10.102;2023-05-07T08:55:59;4.10;;;3.47;;
6292;SDS011;3179;54.350;10.102;2023-05-07T08:58:26;4.07;;;3.70;;
6292;SDS011;3179;54.350;10.102;2023-05-07T09:00:53;4.13;;;3.73;;
6292;SDS011;3179;54.350;10.102;2023-05-07T09:03:20;4.03;;;3.60;;
6292;SDS011;3179;54.350;10.102;2023-05-07T09:05:47;4.17;;;3.77;;
6292;SDS011;3179;54.350;10.102;2023-05-07T09:08:15;4.23;;;3.83;;
6292;SDS011;3179;54.350;10.102;2023-05-07T09:10:42;6.37;;;3.93;;
6292;SDS011;3179;54.350;10.102;2023-05-07T09:13:09;7.10;;;3.77;;
6292;SDS011;3179;54.350;10.102;2023-05-07T09:15:38;4.43;;;3.07;;
6292;SDS011;3179;54.350;10.102;2023-05-07T09:18:04;4.00;;;3.60;;
6292;SDS011;3179;54.350;10.102;2023-05-07T09:20:31;3.70;;;3.40;;
6292;SDS011;3179;54.350;10.102;2023-05-07T09:22:58;5.57;;;3.37;;
6292;SDS011;3179;54.350;10.102;2023-05-07T09:25:30;4.20;;;3.50;;
6292;SDS011;3179;54.350;10.102;2023-05-07T09:27:58;3.50;;;3.20;;
6292;SDS011;3179;54.350;10.102;2023-05-07T09:30:27;6.43;;;3.30;;
6292;SDS011;3179;54.350;10.102;2023-05-07T09:32:55;3.83;;;3.47;;
6292;SDS011;3179;54.350;10.102;2023-05-07T09:35:22;5.07;;;3.47;;
6292;SDS011;3179;54.350;10.102;2023-05-07T09:37:52;3.67;;;3.23;;
6292;SDS011;3179;54.350;10.102;2023-05-07T09:40:20;4.13;;;3.70;;
6292;SDS011;3179;54.350;10.102;2023-05-07T09:42:49;3.47;;;3.17;;
6292;SDS011;3179;54.350;10.102;2023-05-07T09:45:16;5.20;;;3.60;;
6292;SDS011;3179;54.350;10.102;2023-05-07T09:47:48;3.90;;;3.50;;
6292;SDS011;3179;54.350;10.102;2023-05-07T09:50:16;2.90;;;2.70;;
6292;SDS011;3179;54.350;10.102;2023-05-07T09:52:44;4.03;;;3.73;;
6292;SDS011;3179;54.350;10.102;2023-05-07T09:55:11;3.20;;;2.90;;
6292;SDS011;3179;54.350;10.102;2023-05-07T09:57:38;5.50;;;3.50;;
6292;SDS011;3179;54.350;10.102;2023-05-07T10:00:10;3.40;;;3.03;;
6292;SDS011;3179;54.350;10.102;2023-05-07T10:02:38;3.90;;;3.60;;
6292;SDS011;3179;54.350;10.102;2023-05-07T10:05:11;3.30;;;3.00;;
6292;SDS011;3179;54.350;10.102;2023-05-07T10:07:39;3.70;;;3.27;;
6292;SDS011;3179;54.350;10.102;2023-05-07T10:10:07;3.70;;;3.40;;
6292;SDS011;3179;54.350;10.102;2023-05-07T10:12:34;3.07;;;2.87;;
6292;SDS011;3179;54.350;10.102;2023-05-07T10:15:05;4.00;;;3.43;;
6292;SDS011;3179;54.350;10.102;2023-05-07T10:17:35;3.63;;;3.33;;
6292;SDS011;3179;54.350;10.102;2023-05-07T10:20:03;4.57;;;2.87;;
6292;SDS011;3179;54.350;10.102;2023-05-07T10:22:31;3.97;;;3.30;;
6292;SDS011;3179;54.350;10.102;2023-05-07T10:25:03;3.13;;;2.90;;
6292;SDS011;3179;54.350;10.102;2023-05-07T10:27:32;3.20;;;3.00;;
6292;SDS011;3179;54.350;10.102;2023-05-07T10:30:02;3.13;;;2.90;;
6292;SDS011;3179;54.350;10.102;2023-05-07T10:32:37;6.57;;;3.00;;
6292;SDS011;3179;54.350;10.102;2023-05-07T10:35:06;5.33;;;3.17;;
6292;SDS011;3179;54.350;10.102;2023-05-07T10:37:38;3.53;;;3.00;;
6292;SDS011;3179;54.350;10.102;2023-05-07T10:40:06;2.77;;;2.57;;
6292;SDS011;3179;54.350;10.102;2023-05-07T10:42:34;3.30;;;3.00;;
6292;SDS011;3179;54.350;10.102;2023-05-07T10:45:11;3.00;;;2.70;;
6292;SDS011;3179;54.350;10.102;2023-05-07T10:50:33;3.30;;;3.03;;
6292;SDS011;3179;54.350;10.102;2023-05-07T10:55:51;2.30;;;2.10;;
6292;SDS011;3179;54.350;10.102;2023-05-07T10:58:50;5.90;;;2.50;;
6292;SDS011;3179;54.350;10.102;2023-05-07T11:01:17;2.50;;;2.30;;
6292;SDS011;3179;54.350;10.102;2023-05-07T11:04:17;2.53;;;2.40;;
6292;SDS011;3179;54.350;10.102;2023-05-07T11:09:58;5.00;;;2.40;;
6292;SDS011;3179;54.350;10.102;2023-05-07T11:12:48;2.30;;;2.20;;
6292;SDS011;3179;54.350;10.102;2023-05-07T11:17:59;2.30;;;2.10;;
6292;SDS011;3179;54.350;10.102;2023-05-07T11:26:23;4.03;;;2.07;;
6292;SDS011;3179;54.350;10.102;2023-05-07T11:28:51;2.03;;;1.90;;
6292;SDS011;3179;54.350;10.102;2023-05-07T11:31:23;2.00;;;1.90;;
6292;SDS011;3179;54.350;10.102;2023-05-07T11:33:53;2.23;;;1.73;;
6292;SDS011;3179;54.350;10.102;2023-05-07T11:36:22;2.03;;;1.93;;
6292;SDS011;3179;54.350;10.102;2023-05-07T11:38:51;2.00;;;1.80;;
6292;SDS011;3179;54.350;10.102;2023-05-07T11:41:17;1.87;;;1.73;;
6292;SDS011;3179;54.350;10.102;2023-05-07T11:43:56;2.10;;;1.70;;
6292;SDS011;3179;54.350;10.102;2023-05-07T11:46:23;2.67;;;1.70;;
6292;SDS011;3179;54.350;10.102;2023-05-07T11:48:50;2.00;;;1.90;;
6292;SDS011;3179;54.350;10.102;2023-05-07T11:51:22;1.73;;;1.63;;
6292;SDS011;3179;54.350;10.102;2023-05-07T11:53:51;3.27;;;1.77;;
6292;SDS011;3179;54.350;10.102;2023-05-07T11:56:18;1.80;;;1.70;;
6292;SDS011;3179;54.350;10.102;2023-05-07T11:58:47;2.57;;;1.40;;
6292;SDS011;3179;54.350;10.102;2023-05-07T12:01:16;1.60;;;1.50;;
6292;SDS011;3179;54.350;10.102;2023-05-07T12:03:44;2.50;;;1.27;;
6292;SDS011;3179;54.350;10.102;2023-05-07T12:06:11;1.30;;;1.20;;
6292;SDS011;3179;54.350;10.102;2023-05-07T12:08:41;2.47;;;1.70;;
6292;SDS011;3179;54.350;10.102;2023-05-07T12:11:09;2.10;;;1.20;;
6292;SDS011;3179;54.350;10.102;2023-05-07T12:13:38;2.00;;;1.53;;
6292;SDS011;3179;54.350;10.102;2023-05-07T12:16:05;2.10;;;1.90;;
6292;SDS011;3179;54.350;10.102;2023-05-07T12:18:33;1.67;;;1.50;;
6292;SDS011;3179;54.350;10.102;2023-05-07T12:21:02;1.70;;;1.60;;
6292;SDS011;3179;54.350;10.102;2023-05-07T12:23:30;2.17;;;1.63;;
6292;SDS011;3179;54.350;10.102;2023-05-07T12:25:58;1.50;;;1.40;;
6292;SDS011;3179;54.350;10.102;2023-05-07T12:28:25;2.33;;;1.60;;
6292;SDS011;3179;54.350;10.102;2023-05-07T12:30:52;1.73;;;1.50;;
6292;SDS011;3179;54.350;10.102;2023-05-07T12:33:23;2.07;;;1.90;;
6292;SDS011;3179;54.350;10.102;2023-05-07T12:35:52;2.23;;;1.40;;
6292;SDS011;3179;54.350;10.102;2023-05-07T12:38:20;1.50;;;1.23;;
6292;SDS011;3179;54.350;10.102;2023-05-07T12:40:47;2.07;;;1.63;;
6292;SDS011;3179;54.350;10.102;2023-05-07T12:43:17;1.97;;;1.50;;
6292;SDS011;3179;54.350;10.102;2023-05-07T12:45:44;1.80;;;1.70;;
6292;SDS011;3179;54.350;10.102;2023-05-07T12:48:13;2.90;;;1.50;;
6292;SDS011;3179;54.350;10.102;2023-05-07T12:50:40;1.60;;;1.50;;
6292;SDS011;3179;54.350;10.102;2023-05-07T12:53:08;2.33;;;1.73;;
6292;SDS011;3179;54.350;10.102;2023-05-07T12:55:42;4.47;;;1.77;;
6292;SDS011;3179;54.350;10.102;2023-05-07T12:58:16;1.60;;;1.50;;
6292;SDS011;3179;54.350;10.102;2023-05-07T13:00:47;2.00;;;1.60;;
6292;SDS011;3179;54.350;10.102;2023-05-07T13:03:20;1.80;;;1.47;;
6292;SDS011;3179;54.350;10.102;2023-05-07T13:05:48;6.47;;;1.63;;
6292;SDS011;3179;54.350;10.102;2023-05-07T13:08:23;3.43;;;2.77;;
6292;SDS011;3179;54.350;10.102;2023-05-07T13:10:50;2.40;;;2.20;;
6292;SDS011;3179;54.350;10.102;2023-05-07T13:13:18;2.07;;;1.60;;
6292;SDS011;3179;54.350;10.102;2023-05-07T13:15:45;1.47;;;1.40;;
6292;SDS011;3179;54.350;10.102;2023-05-07T13:18:12;1.63;;;1.30;;
6292;SDS011;3179;54.350;10.102;2023-05-07T13:20:39;2.70;;;1.60;;
6292;SDS011;3179;54.350;10.102;2023-05-07T13:23:06;7.23;;;1.70;;
6292;SDS011;3179;54.350;10.102;2023-05-07T13:25:32;2.30;;;2.10;;
6292;SDS011;3179;54.350;10.102;2023-05-07T13:27:59;3.40;;;1.80;;
6292;SDS011;3179;54.350;10.102;2023-05-07T13:30:27;1.83;;;1.63;;
6292;SDS011;3179;54.350;10.102;2023-05-07T13:32:55;5.80;;;1.90;;
6292;SDS011;3179;54.350;10.102;2023-05-07T13:35:22;4.80;;;1.80;;
6292;SDS011;3179;54.350;10.102;2023-05-07T13:37:49;2.13;;;1.93;;
6292;SDS011;3179;54.350;10.102;2023-05-07T13:40:17;2.27;;;1.60;;
6292;SDS011;3179;54.350;10.102;2023-05-07T13:42:44;1.60;;;1.40;;
6292;SDS011;3179;54.350;10.102;2023-05-07T13:45:11;1.57;;;1.47;;
6292;SDS011;3179;54.350;10.102;2023-05-07T13:47:40;2.13;;;1.40;;
6292;SDS011;3179;54.350;10.102;2023-05-07T13:50:07;1.40;;;1.30;;
6292;SDS011;3179;54.350;10.102;2023-05-07T13:52:36;1.63;;;1.53;;
6292;SDS011;3179;54.350;10.102;2023-05-07T13:55:03;1.60;;;1.50;;
6292;SDS011;3179;54.350;10.102;2023-05-07T13:57:30;1.73;;;1.40;;
6292;SDS011;3179;54.350;10.102;2023-05-07T13:59:57;1.70;;;1.50;;
6292;SDS011;3179;54.350;10.102;2023-05-07T14:02:24;1.33;;;1.23;;
6292;SDS011;3179;54.350;10.102;2023-05-07T14:04:52;3.13;;;1.63;;
6292;SDS011;3179;54.350;10.102;2023-05-07T14:07:19;1.53;;;1.43;;
6292;SDS011;3179;54.350;10.102;2023-05-07T14:09:46;1.47;;;1.30;;
6292;SDS011;3179;54.350;10.102;2023-05-07T14:12:13;6.23;;;1.63;;
6292;SDS011;3179;54.350;10.102;2023-05-07T14:14:39;2.57;;;1.60;;
6292;SDS011;3179;54.350;10.102;2023-05-07T14:17:06;1.90;;;1.70;;
6292;SDS011;3179;54.350;10.102;2023-05-07T14:19:33;3.23;;;1.70;;
6292;SDS011;3179;54.350;10.102;2023-05-07T14:22:02;1.60;;;1.33;;
6292;SDS011;3179;54.350;10.102;2023-05-07T14:24:28;1.53;;;1.40;;
6292;SDS011;3179;54.350;10.102;2023-05-07T14:26:55;2.07;;;1.53;;
6292;SDS011;3179;54.350;10.102;2023-05-07T14:29:22;5.10;;;1.60;;
6292;SDS011;3179;54.350;10.102;2023-05-07T14:31:49;1.60;;;1.43;;
6292;SDS011;3179;54.350;10.102;2023-05-07T14:34:16;3.20;;;1.40;;
6292;SDS011;3179;54.350;10.102;2023-05-07T14:36:42;1.97;;;1.20;;
6292;SDS011;3179;54.350;10.102;2023-05-07T14:39:11;1.17;;;1.07;;
6292;SDS011;3179;54.350;10.102;2023-05-07T14:41:38;1.77;;;1.27;;
6292;SDS011;3179;54.350;10.102;2023-05-07T14:44:04;1.80;;;1.33;;
6292;SDS011;3179;54.350;10.102;2023-05-07T14:46:31;1.33;;;1.17;;
6292;SDS011;3179;54.350;10.102;2023-05-07T14:48:58;1.50;;;1.40;;
6292;SDS011;3179;54.350;10.102;2023-05-07T14:51:25;1.77;;;1.30;;
6292;SDS011;3179;54.350;10.102;2023-05-07T14:53:53;1.20;;;1.10;;
6292;SDS011;3179;54.350;10.102;2023-05-07T14:56:22;2.73;;;1.20;;
6292;SDS011;3179;54.350;10.102;2023-05-07T14:58:48;1.50;;;1.40;;
6292;SDS011;3179;54.350;10.102;2023-05-07T15:01:15;2.50;;;1.70;;
6292;SDS011;3179;54.350;10.102;2023-05-07T15:03:42;4.77;;;1.70;;
6292;SDS011;3179;54.350;10.102;2023-05-07T15:06:09;4.07;;;1.30;;
6292;SDS011;3179;54.350;10.102;2023-05-07T15:08:35;1.37;;;1.27;;
6292;SDS011;3179;54.350;10.102;2023-05-07T15:11:02;1.20;;;1.10;;
6292;SDS011;3179;54.350;10.102;2023-05-07T15:13:30;1.70;;;1.23;;
6292;SDS011;3179;54.350;10.102;2023-05-07T15:15:57;4.13;;;1.33;;
6292;SDS011;3179;54.350;10.102;2023-05-07T15:18:24;3.83;;;1.43;;
6292;SDS011;3179;54.350;10.102;2023-05-07T15:20:51;1.63;;;1.50;;